sensor_id;sensor_type;location;lat;lon;timestamp;P1;durP1;ratioP1;P2;durP2;ratioP2
7348;SDS011;13010;-33.424;-70.614;2023-04-16T00:15:22;140.57;;;135.93;;
7348;SDS011;13010;-33.424;-70.614;2023-04-16T00:18:11;149.98;;;145.10;;
7348;SDS011;13010;-33.424;-70.614;2023-04-16T00:21:00;136.68;;;132.18;;
7348;SDS011;13010;-33.424;-70.614;2023-04-16T00:23:49;144.85;;;140.07;;
7348;SDS011;13010;-33.424;-70.614;2023-04-16T00:26:37;139.25;;;134.60;;
7348;SDS011;13010;-33.424;-70.614;2023-04-16T00:29:28;126.93;;;122.63;;
7348;SDS011;13010;-33.424;-70.614;2023-04-16T00:32:19;117.38;;;113.38;;
7348;SDS011;13010;-33.424;-70.614;2023-04-16T00:35:08;108.22;;;104.47;;
7348;SDS011;13010;-33.424;-70.614;2023-04-16T00:37:57;108.05;;;104.30;;
7348;SDS011;13010;-33.424;-70.614;2023-04-16T00:40:46;111.00;;;107.15;;
7348;SDS011;13010;-33.424;-70.614;2023-04-16T00:43:35;107.35;;;103.60;;
7348;SDS011;13010;-33.424;-70.614;2023-04-16T00:46:23;92.40;;;89.18;;
7348;SDS011;13010;-33.424;-70.614;2023-04-16T00:49:14;96.90;;;93.53;;
7348;SDS011;13010;-33.424;-70.614;2023-04-16T00:52:03;101.95;;;98.38;;
7348;SDS011;13010;-33.424;-70.614;2023-04-16T00:54:52;90.90;;;87.55;;
7348;SDS011;13010;-33.424;-70.614;2023-04-16T00:57:42;68.65;;;66.15;;
7348;SDS011;13010;-33.424;-70.614;2023-04-16T01:00:31;77.07;;;74.28;;
7348;SDS011;13010;-33.424;-70.614;2023-04-16T01:03:20;70.60;;;68.05;;
7348;SDS011;13010;-33.424;-70.614;2023-04-16T01:06:10;71.25;;;68.55;;
7348;SDS011;13010;-33.424;-70.614;2023-04-16T01:09:03;72.28;;;69.65;;
7348;SDS011;13010;-33.424;-70.614;2023-04-16T01:11:52;71.53;;;68.90;;
7348;SDS011;13010;-33.424;-70.614;2023-04-16T01:14:41;77.32;;;74.55;;
7348;SDS011;13010;-33.424;-70.614;2023-04-16T01:17:29;73.13;;;70.47;;
7348;SDS011;13010;-33.424;-70.614;2023-04-16T01:20:18;78.85;;;75.97;;
7348;SDS011;13010;-33.424;-70.614;2023-04-16T01:23:09;79.35;;;76.47;;
7348;SDS011;13010;-33.424;-70.614;2023-04-16T01:25:58;82.57;;;79.53;;
7348;SDS011;13010;-33.424;-70.614;2023-04-16T01:28:47;102.07;;;98.50;;
7348;SDS011;13010;-33.424;-70.614;2023-04-16T01:31:35;122.63;;;118.40;;
7348;SDS011;13010;-33.424;-70.614;2023-04-16T01:34:24;128.88;;;124.53;;
7348;SDS011;13010;-33.424;-70.614;2023-04-16T01:37:13;125.05;;;120.78;;
7348;SDS011;13010;-33.424;-70.614;2023-04-16T01:40:04;128.95;;;124.50;;
7348;SDS011;13010;-33.424;-70.614;2023-04-16T01:42:53;117.55;;;113.50;;
7348;SDS011;13010;-33.424;-70.614;2023-04-16T01:45:42;123.05;;;118.80;;
7348;SDS011;13010;-33.424;-70.614;2023-04-16T01:48:31;124.82;;;120.53;;
7348;SDS011;13010;-33.424;-70.614;2023-04-16T01:51:20;117.45;;;113.40;;
7348;SDS011;13010;-33.424;-70.614;2023-04-16T01:54:08;111.60;;;107.75;;
7348;SDS011;13010;-33.424;-70.614;2023-04-16T01:56:59;123.35;;;119.10;;
7348;SDS011;13010;-33.424;-70.614;2023-04-16T01:59:48;129.18;;;124.72;;
7348;SDS011;13010;-33.424;-70.614;2023-04-16T02:02:37;128.68;;;124.22;;
7348;SDS011;13010;-33.424;-70.614;2023-04-16T02:05:26;164.02;;;158.73;;
7348;SDS011;13010;-33.424;-70.614;2023-04-16T02:08:15;125.78;;;121.53;;
7348;SDS011;13010;-33.424;-70.614;2023-04-16T02:11:03;132.73;;;128.27;;
7348;SDS011;13010;-33.424;-70.614;2023-04-16T02:13:54;143.80;;;139.02;;
7348;SDS011;13010;-33.424;-70.614;2023-04-16T02:16:42;125.75;;;121.50;;
7348;SDS011;13010;-33.424;-70.614;2023-04-16T02:19:32;127.90;;;123.55;;
7348;SDS011;13010;-33.424;-70.614;2023-04-16T02:22:22;127.15;;;122.85;;
7348;SDS011;13010;-33.424;-70.614;2023-04-16T02:25:11;130.95;;;126.47;;
7348;SDS011;13010;-33.424;-70.614;2023-04-16T02:28:00;126.90;;;122.55;;
7348;SDS011;13010;-33.424;-70.614;2023-04-16T02:30:50;165.20;;;159.85;;
7348;SDS011;13010;-33.424;-70.614;2023-04-16T02:33:39;161.25;;;156.02;;
7348;SDS011;13010;-33.424;-70.614;2023-04-16T02:36:28;163.30;;;158.02;;
7348;SDS011;13010;-33.424;-70.614;2023-04-16T02:39:17;146.25;;;141.45;;
7348;SDS011;13010;-33.424;-70.614;2023-04-16T02:42:06;132.02;;;127.57;;
7348;SDS011;13010;-33.424;-70.614;2023-04-16T02:44:55;136.57;;;132.02;;
7348;SDS011;13010;-33.424;-70.614;2023-04-16T02:47:46;127.82;;;123.53;;
7348;SDS011;13010;-33.424;-70.614;2023-04-16T02:50:35;132.02;;;127.57;;
7348;SDS011;13010;-33.424;-70.614;2023-04-16T02:53:23;125.78;;;121.50;;
7348;SDS011;13010;-33.424;-70.614;2023-04-16T02:56:12;121.40;;;117.30;;
7348;SDS011;13010;-33.424;-70.614;2023-04-16T02:59:01;130.38;;;125.43;;
7348;SDS011;13010;-33.424;-70.614;2023-04-16T03:01:49;134.35;;;129.80;;
7348;SDS011;13010;-33.424;-70.614;2023-04-16T03:04:40;119.07;;;115.00;;
7348;SDS011;13010;-33.424;-70.614;2023-04-16T03:07:28;118.35;;;114.30;;
7348;SDS011;13010;-33.424;-70.614;2023-04-16T03:10:17;125.25;;;120.95;;
7348;SDS011;13010;-33.424;-70.614;2023-04-16T03:13:06;119.82;;;115.72;;
7348;SDS011;13010;-33.424;-70.614;2023-04-16T03:15:55;137.10;;;132.38;;
7348;SDS011;13010;-33.424;-70.614;2023-04-16T03:18:43;117.88;;;113.82;;
7348;SDS011;13010;-33.424;-70.614;2023-04-16T03:21:33;106.15;;;102.45;;
7348;SDS011;13010;-33.424;-70.614;2023-04-16T03:24:22;107.10;;;103.32;;
7348;SDS011;13010;-33.424;-70.614;2023-04-16T03:27:13;110.32;;;106.53;;
7348;SDS011;13010;-33.424;-70.614;2023-04-16T03:30:05;113.22;;;109.30;;
7348;SDS011;13010;-33.424;-70.614;2023-04-16T03:32:58;110.18;;;106.32;;
7348;SDS011;13010;-33.424;-70.614;2023-04-16T03:35:53;112.93;;;109.00;;
7348;SDS011;13010;-33.424;-70.614;2023-04-16T03:38:44;98.63;;;95.18;;
7348;SDS011;13010;-33.424;-70.614;2023-04-16T03:41:33;97.30;;;93.85;;
7348;SDS011;13010;-33.424;-70.614;2023-04-16T03:44:22;101.13;;;97.57;;
7348;SDS011;13010;-33.424;-70.614;2023-04-16T03:47:10;110.43;;;106.63;;
7348;SDS011;13010;-33.424;-70.614;2023-04-16T03:49:59;107.88;;;104.13;;
7348;SDS011;13010;-33.424;-70.614;2023-04-16T03:52:48;117.65;;;113.57;;
7348;SDS011;13010;-33.424;-70.614;2023-04-16T03:55:39;102.80;;;99.22;;
7348;SDS011;13010;-33.424;-70.614;2023-04-16T03:58:28;111.85;;;107.95;;
7348;SDS011;13010;-33.424;-70.614;2023-04-16T04:01:17;99.70;;;96.18;;
7348;SDS011;13010;-33.424;-70.614;2023-04-16T04:04:06;100.32;;;96.78;;
7348;SDS011;13010;-33.424;-70.614;2023-04-16T04:06:55;99.78;;;96.22;;
7348;SDS011;13010;-33.424;-70.614;2023-04-16T04:09:44;94.25;;;90.93;;
7348;SDS011;13010;-33.424;-70.614;2023-04-16T04:12:34;102.75;;;99.13;;
7348;SDS011;13010;-33.424;-70.614;2023-04-16T04:15:23;110.15;;;106.30;;
7348;SDS011;13010;-33.424;-70.614;2023-04-16T04:18:12;93.57;;;90.22;;
7348;SDS011;13010;-33.424;-70.614;2023-04-16T04:21:04;105.28;;;101.55;;
7348;SDS011;13010;-33.424;-70.614;2023-04-16T04:23:53;84.95;;;81.88;;
7348;SDS011;13010;-33.424;-70.614;2023-04-16T04:26:42;84.50;;;81.50;;
7348;SDS011;13010;-33.424;-70.614;2023-04-16T04:29:32;91.85;;;88.60;;
7348;SDS011;13010;-33.424;-70.614;2023-04-16T04:32:21;77.93;;;75.13;;
7348;SDS011;13010;-33.424;-70.614;2023-04-16T04:35:10;96.30;;;92.88;;
7348;SDS011;13010;-33.424;-70.614;2023-04-16T04:37:58;89.43;;;86.22;;
7348;SDS011;13010;-33.424;-70.614;2023-04-16T04:40:47;94.30;;;90.95;;
7348;SDS011;13010;-33.424;-70.614;2023-04-16T04:43:36;87.25;;;84.10;;
7348;SDS011;13010;-33.424;-70.614;2023-04-16T04:46:27;90.97;;;87.75;;
7348;SDS011;13010;-33.424;-70.614;2023-04-16T04:49:15;78.20;;;75.40;;
7348;SDS011;13010;-33.424;-70.614;2023-04-16T04:52:04;104.80;;;101.10;;
7348;SDS011;13010;-33.424;-70.614;2023-04-16T04:54:56;81.88;;;78.93;;
7348;SDS011;13010;-33.424;-70.614;2023-04-16T04:57:44;83.10;;;80.15;;
7348;SDS011;13010;-33.424;-70.614;2023-04-16T05:00:35;82.43;;;79.47;;
7348;SDS011;13010;-33.424;-70.614;2023-04-16T05:03:25;89.00;;;85.82;;
7348;SDS011;13010;-33.424;-70.614;2023-04-16T05:06:14;94.50;;;91.15;;
7348;SDS011;13010;-33.424;-70.614;2023-04-16T05:09:06;79.60;;;76.75;;
7348;SDS011;13010;-33.424;-70.614;2023-04-16T05:11:55;82.93;;;79.97;;
7348;SDS011;13010;-33.424;-70.614;2023-04-16T05:14:44;91.07;;;87.80;;
7348;SDS011;13010;-33.424;-70.614;2023-04-16T05:17:33;83.28;;;80.30;;
7348;SDS011;13010;-33.424;-70.614;2023-04-16T05:20:23;79.22;;;76.38;;
7348;SDS011;13010;-33.424;-70.614;2023-04-16T05:23:12;76.65;;;73.88;;
7348;SDS011;13010;-33.424;-70.614;2023-04-16T05:26:01;76.22;;;73.47;;
7348;SDS011;13010;-33.424;-70.614;2023-04-16T05:28:49;75.30;;;72.60;;
7348;SDS011;13010;-33.424;-70.614;2023-04-16T05:31:38;70.88;;;68.32;;
7348;SDS011;13010;-33.424;-70.614;2023-04-16T05:34:27;69.78;;;67.22;;
7348;SDS011;13010;-33.424;-70.614;2023-04-16T05:37:17;70.65;;;68.05;;
7348;SDS011;13010;-33.424;-70.614;2023-04-16T05:40:07;79.15;;;76.30;;
7348;SDS011;13010;-33.424;-70.614;2023-04-16T05:42:56;75.25;;;72.50;;
7348;SDS011;13010;-33.424;-70.614;2023-04-16T05:45:45;67.90;;;65.40;;
7348;SDS011;13010;-33.424;-70.614;2023-04-16T05:48:33;60.67;;;58.40;;
7348;SDS011;13010;-33.424;-70.614;2023-04-16T05:51:22;67.90;;;65.40;;
7348;SDS011;13010;-33.424;-70.614;2023-04-16T05:54:13;95.13;;;88.82;;
7348;SDS011;13010;-33.424;-70.614;2023-04-16T05:57:04;66.63;;;64.18;;
7348;SDS011;13010;-33.424;-70.614;2023-04-16T05:59:53;64.57;;;62.20;;
7348;SDS011;13010;-33.424;-70.614;2023-04-16T06:02:42;65.55;;;63.13;;
7348;SDS011;13010;-33.424;-70.614;2023-04-16T06:05:30;73.38;;;70.72;;
7348;SDS011;13010;-33.424;-70.614;2023-04-16T06:08:19;87.30;;;83.05;;
7348;SDS011;13010;-33.424;-70.614;2023-04-16T06:11:10;71.00;;;68.40;;
7348;SDS011;13010;-33.424;-70.614;2023-04-16T06:13:59;70.65;;;68.10;;
7348;SDS011;13010;-33.424;-70.614;2023-04-16T06:16:48;72.13;;;69.47;;
7348;SDS011;13010;-33.424;-70.614;2023-04-16T06:19:36;73.35;;;70.70;;
7348;SDS011;13010;-33.424;-70.614;2023-04-16T06:22:25;78.15;;;75.35;;
7348;SDS011;13010;-33.424;-70.614;2023-04-16T06:25:14;81.25;;;78.30;;
7348;SDS011;13010;-33.424;-70.614;2023-04-16T06:28:05;160.55;;;155.35;;
7348;SDS011;13010;-33.424;-70.614;2023-04-16T06:30:54;136.10;;;131.50;;
7348;SDS011;13010;-33.424;-70.614;2023-04-16T06:33:43;75.15;;;72.45;;
7348;SDS011;13010;-33.424;-70.614;2023-04-16T06:36:32;80.85;;;78.00;;
7348;SDS011;13010;-33.424;-70.614;2023-04-16T06:39:20;79.20;;;76.35;;
7348;SDS011;13010;-33.424;-70.614;2023-04-16T06:42:09;84.63;;;81.57;;
7348;SDS011;13010;-33.424;-70.614;2023-04-16T06:45:00;82.00;;;79.05;;
7348;SDS011;13010;-33.424;-70.614;2023-04-16T06:47:48;80.18;;;77.28;;
7348;SDS011;13010;-33.424;-70.614;2023-04-16T06:50:37;84.93;;;81.88;;
7348;SDS011;13010;-33.424;-70.614;2023-04-16T06:53:26;78.53;;;75.57;;
7348;SDS011;13010;-33.424;-70.614;2023-04-16T06:56:15;76.72;;;73.97;;
7348;SDS011;13010;-33.424;-70.614;2023-04-16T06:59:03;175.75;;;170.15;;
7348;SDS011;13010;-33.424;-70.614;2023-04-16T07:01:53;80.93;;;78.07;;
7348;SDS011;13010;-33.424;-70.614;2023-04-16T07:04:42;87.43;;;84.20;;
7348;SDS011;13010;-33.424;-70.614;2023-04-16T07:07:31;81.10;;;78.20;;
7348;SDS011;13010;-33.424;-70.614;2023-04-16T07:10:20;86.45;;;83.32;;
7348;SDS011;13010;-33.424;-70.614;2023-04-16T07:13:09;45.22;;;43.47;;
7348;SDS011;13010;-33.424;-70.614;2023-04-16T07:15:58;56.75;;;54.60;;
7348;SDS011;13010;-33.424;-70.614;2023-04-16T07:18:48;79.85;;;76.95;;
7348;SDS011;13010;-33.424;-70.614;2023-04-16T07:21:37;84.72;;;81.68;;
7348;SDS011;13010;-33.424;-70.614;2023-04-16T07:24:27;90.28;;;87.05;;
7348;SDS011;13010;-33.424;-70.614;2023-04-16T07:27:16;125.97;;;118.93;;
7348;SDS011;13010;-33.424;-70.614;2023-04-16T07:30:05;103.35;;;99.70;;
7348;SDS011;13010;-33.424;-70.614;2023-04-16T07:32:54;108.10;;;104.35;;
7348;SDS011;13010;-33.424;-70.614;2023-04-16T07:35:45;109.35;;;105.55;;
7348;SDS011;13010;-33.424;-70.614;2023-04-16T07:38:34;98.13;;;94.68;;
7348;SDS011;13010;-33.424;-70.614;2023-04-16T07:41:23;109.05;;;105.15;;
7348;SDS011;13010;-33.424;-70.614;2023-04-16T07:44:13;96.97;;;93.57;;
7348;SDS011;13010;-33.424;-70.614;2023-04-16T07:47:02;53.10;;;51.05;;
7348;SDS011;13010;-33.424;-70.614;2023-04-16T07:49:50;53.22;;;51.22;;
7348;SDS011;13010;-33.424;-70.614;2023-04-16T07:52:41;51.92;;;49.92;;
7348;SDS011;13010;-33.424;-70.614;2023-04-16T07:55:30;51.00;;;49.03;;
7348;SDS011;13010;-33.424;-70.614;2023-04-16T07:58:19;50.80;;;48.85;;
7348;SDS011;13010;-33.424;-70.614;2023-04-16T08:01:08;51.58;;;49.63;;
7348;SDS011;13010;-33.424;-70.614;2023-04-16T08:03:57;52.80;;;50.80;;
7348;SDS011;13010;-33.424;-70.614;2023-04-16T08:06:45;53.75;;;51.70;;
7348;SDS011;13010;-33.424;-70.614;2023-04-16T08:09:35;50.53;;;48.60;;
7348;SDS011;13010;-33.424;-70.614;2023-04-16T08:12:34;51.15;;;49.20;;
7348;SDS011;13010;-33.424;-70.614;2023-04-16T08:15:23;46.90;;;45.10;;
7348;SDS011;13010;-33.424;-70.614;2023-04-16T08:18:13;47.90;;;46.08;;
7348;SDS011;13010;-33.424;-70.614;2023-04-16T08:21:01;50.70;;;48.70;;
7348;SDS011;13010;-33.424;-70.614;2023-04-16T08:23:50;46.85;;;45.05;;
7348;SDS011;13010;-33.424;-70.614;2023-04-16T08:26:43;50.10;;;48.17;;
7348;SDS011;13010;-33.424;-70.614;2023-04-16T08:29:32;49.30;;;47.40;;
7348;SDS011;13010;-33.424;-70.614;2023-04-16T08:32:20;51.95;;;49.95;;
7348;SDS011;13010;-33.424;-70.614;2023-04-16T08:35:09;42.25;;;40.58;;
7348;SDS011;13010;-33.424;-70.614;2023-04-16T08:37:58;42.28;;;40.58;;
7348;SDS011;13010;-33.424;-70.614;2023-04-16T08:40:47;45.17;;;43.42;;
7348;SDS011;13010;-33.424;-70.614;2023-04-16T08:43:37;51.30;;;49.38;;
7348;SDS011;13010;-33.424;-70.614;2023-04-16T08:46:30;44.63;;;42.92;;
7348;SDS011;13010;-33.424;-70.614;2023-04-16T08:49:20;46.42;;;44.63;;
7348;SDS011;13010;-33.424;-70.614;2023-04-16T08:52:09;47.95;;;46.10;;
7348;SDS011;13010;-33.424;-70.614;2023-04-16T08:55:05;75.60;;;71.22;;
7348;SDS011;13010;-33.424;-70.614;2023-04-16T08:57:58;49.88;;;47.97;;
7348;SDS011;13010;-33.424;-70.614;2023-04-16T09:00:49;50.45;;;48.55;;
7348;SDS011;13010;-33.424;-70.614;2023-04-16T09:03:38;45.65;;;43.85;;
7348;SDS011;13010;-33.424;-70.614;2023-04-16T09:06:30;44.15;;;42.45;;
7348;SDS011;13010;-33.424;-70.614;2023-04-16T09:09:20;43.90;;;42.20;;
7348;SDS011;13010;-33.424;-70.614;2023-04-16T09:12:12;40.88;;;39.28;;
7348;SDS011;13010;-33.424;-70.614;2023-04-16T09:15:04;45.45;;;43.67;;
7348;SDS011;13010;-33.424;-70.614;2023-04-16T09:17:56;38.03;;;36.42;;
7348;SDS011;13010;-33.424;-70.614;2023-04-16T09:20:45;41.00;;;39.33;;
7348;SDS011;13010;-33.424;-70.614;2023-04-16T09:23:34;45.08;;;43.28;;
7348;SDS011;13010;-33.424;-70.614;2023-04-16T09:26:27;43.50;;;41.80;;
7348;SDS011;13010;-33.424;-70.614;2023-04-16T09:29:24;45.95;;;44.15;;
7348;SDS011;13010;-33.424;-70.614;2023-04-16T09:32:23;47.45;;;45.65;;
7348;SDS011;13010;-33.424;-70.614;2023-04-16T09:35:15;42.88;;;41.17;;
7348;SDS011;13010;-33.424;-70.614;2023-04-16T09:38:05;53.03;;;51.00;;
7348;SDS011;13010;-33.424;-70.614;2023-04-16T09:41:04;50.03;;;48.13;;
7348;SDS011;13010;-33.424;-70.614;2023-04-16T09:43:54;48.22;;;46.35;;
7348;SDS011;13010;-33.424;-70.614;2023-04-16T09:46:44;48.83;;;46.95;;
7348;SDS011;13010;-33.424;-70.614;2023-04-16T09:49:33;45.47;;;43.70;;
7348;SDS011;13010;-33.424;-70.614;2023-04-16T09:52:29;47.55;;;45.72;;
7348;SDS011;13010;-33.424;-70.614;2023-04-16T09:55:21;44.72;;;43.00;;
7348;SDS011;13010;-33.424;-70.614;2023-04-16T09:58:13;45.67;;;43.92;;
7348;SDS011;13010;-33.424;-70.614;2023-04-16T10:01:06;47.47;;;45.67;;
7348;SDS011;13010;-33.424;-70.614;2023-04-16T10:03:57;50.22;;;48.30;;
7348;SDS011;13010;-33.424;-70.614;2023-04-16T10:06:48;46.25;;;44.45;;
7348;SDS011;13010;-33.424;-70.614;2023-04-16T10:09:52;44.38;;;42.60;;
7348;SDS011;13010;-33.424;-70.614;2023-04-16T10:12:41;43.47;;;41.72;;
7348;SDS011;13010;-33.424;-70.614;2023-04-16T10:15:29;46.40;;;44.55;;
7348;SDS011;13010;-33.424;-70.614;2023-04-16T10:18:21;52.65;;;50.55;;
7348;SDS011;13010;-33.424;-70.614;2023-04-16T10:21:09;46.75;;;44.92;;
7348;SDS011;13010;-33.424;-70.614;2023-04-16T10:23:59;46.40;;;44.60;;
7348;SDS011;13010;-33.424;-70.614;2023-04-16T10:26:49;42.65;;;40.95;;
7348;SDS011;13010;-33.424;-70.614;2023-04-16T10:29:39;46.25;;;44.45;;
7348;SDS011;13010;-33.424;-70.614;2023-04-16T10:32:29;42.83;;;41.10;;
7348;SDS011;13010;-33.424;-70.614;2023-04-16T10:35:18;39.53;;;37.92;;
7348;SDS011;13010;-33.424;-70.614;2023-04-16T10:38:28;43.00;;;41.22;;
7348;SDS011;13010;-33.424;-70.614;2023-04-16T10:41:18;46.30;;;44.50;;
7348;SDS011;13010;-33.424;-70.614;2023-04-16T10:44:09;48.05;;;46.25;;
7348;SDS011;13010;-33.424;-70.614;2023-04-16T10:46:58;50.30;;;48.30;;
7348;SDS011;13010;-33.424;-70.614;2023-04-16T10:49:47;46.15;;;44.35;;
7348;SDS011;13010;-33.424;-70.614;2023-04-16T10:52:35;47.58;;;45.70;;
7348;SDS011;13010;-33.424;-70.614;2023-04-16T10:55:26;48.25;;;46.35;;
7348;SDS011;13010;-33.424;-70.614;2023-04-16T10:58:26;56.80;;;53.50;;
7348;SDS011;13010;-33.424;-70.614;2023-04-16T11:01:16;47.47;;;45.67;;
7348;SDS011;13010;-33.424;-70.614;2023-04-16T11:07:15;52.80;;;50.63;;
7348;SDS011;13010;-33.424;-70.614;2023-04-16T11:10:05;48.90;;;47.05;;
7348;SDS011;13010;-33.424;-70.614;2023-04-16T11:12:58;50.00;;;48.10;;
7348;SDS011;13010;-33.424;-70.614;2023-04-16T11:15:47;44.35;;;42.63;;
7348;SDS011;13010;-33.424;-70.614;2023-04-16T11:18:39;44.05;;;42.30;;
7348;SDS011;13010;-33.424;-70.614;2023-04-16T11:21:31;49.97;;;48.08;;
7348;SDS011;13010;-33.424;-70.614;2023-04-16T11:24:20;51.60;;;49.40;;
7348;SDS011;13010;-33.424;-70.614;2023-04-16T11:27:12;41.75;;;40.13;;
7348;SDS011;13010;-33.424;-70.614;2023-04-16T11:30:01;45.60;;;43.83;;
7348;SDS011;13010;-33.424;-70.614;2023-04-16T11:32:50;48.90;;;47.00;;
7348;SDS011;13010;-33.424;-70.614;2023-04-16T11:35:41;48.05;;;46.17;;
7348;SDS011;13010;-33.424;-70.614;2023-04-16T11:38:36;48.95;;;47.08;;
7348;SDS011;13010;-33.424;-70.614;2023-04-16T11:41:26;45.90;;;44.15;;
7348;SDS011;13010;-33.424;-70.614;2023-04-16T11:44:18;51.13;;;49.20;;
7348;SDS011;13010;-33.424;-70.614;2023-04-16T11:47:08;49.50;;;47.60;;
7348;SDS011;13010;-33.424;-70.614;2023-04-16T11:49:58;59.42;;;57.10;;
7348;SDS011;13010;-33.424;-70.614;2023-04-16T11:53:08;52.08;;;50.10;;
7348;SDS011;13010;-33.424;-70.614;2023-04-16T11:55:59;57.08;;;54.92;;
7348;SDS011;13010;-33.424;-70.614;2023-04-16T11:59:02;133.27;;;128.80;;
7348;SDS011;13010;-33.424;-70.614;2023-04-16T12:01:53;73.53;;;70.88;;
7348;SDS011;13010;-33.424;-70.614;2023-04-16T12:04:42;138.82;;;134.20;;
7348;SDS011;13010;-33.424;-70.614;2023-04-16T12:07:31;143.70;;;139.00;;
7348;SDS011;13010;-33.424;-70.614;2023-04-16T12:10:32;180.88;;;175.25;;
7348;SDS011;13010;-33.424;-70.614;2023-04-16T12:13:21;190.43;;;184.52;;
7348;SDS011;13010;-33.424;-70.614;2023-04-16T12:16:15;179.48;;;173.88;;
7348;SDS011;13010;-33.424;-70.614;2023-04-16T12:19:06;197.48;;;191.50;;
7348;SDS011;13010;-33.424;-70.614;2023-04-16T12:21:59;198.40;;;192.38;;
7348;SDS011;13010;-33.424;-70.614;2023-04-16T12:24:48;214.27;;;207.90;;
7348;SDS011;13010;-33.424;-70.614;2023-04-16T12:27:46;209.73;;;203.48;;
7348;SDS011;13010;-33.424;-70.614;2023-04-16T12:30:47;212.93;;;206.57;;
7348;SDS011;13010;-33.424;-70.614;2023-04-16T12:33:36;220.55;;;214.00;;
7348;SDS011;13010;-33.424;-70.614;2023-04-16T12:36:25;229.02;;;222.32;;
7348;SDS011;13010;-33.424;-70.614;2023-04-16T12:39:15;218.65;;;212.13;;
7348;SDS011;13010;-33.424;-70.614;2023-04-16T12:42:04;222.23;;;215.65;;
7348;SDS011;13010;-33.424;-70.614;2023-04-16T12:44:56;215.23;;;208.77;;
7348;SDS011;13010;-33.424;-70.614;2023-04-16T12:47:45;187.85;;;182.05;;
7348;SDS011;13010;-33.424;-70.614;2023-04-16T12:50:36;235.35;;;228.43;;
7348;SDS011;13010;-33.424;-70.614;2023-04-16T12:53:27;240.52;;;233.50;;
7348;SDS011;13010;-33.424;-70.614;2023-04-16T22:52:26;155.93;;;150.93;;
7348;SDS011;13010;-33.424;-70.614;2023-04-16T22:55:15;161.00;;;155.82;;
7348;SDS011;13010;-33.424;-70.614;2023-04-16T22:58:04;147.32;;;142.55;;
7348;SDS011;13010;-33.424;-70.614;2023-04-16T23:00:53;155.05;;;150.07;;
7348;SDS011;13010;-33.424;-70.614;2023-04-16T23:03:42;146.15;;;141.40;;
7348;SDS011;13010;-33.424;-70.614;2023-04-16T23:06:31;142.00;;;137.40;;
7348;SDS011;13010;-33.424;-70.614;2023-04-16T23:09:24;138.52;;;134.02;;
7348;SDS011;13010;-33.424;-70.614;2023-04-16T23:12:13;135.93;;;131.48;;
7348;SDS011;13010;-33.424;-70.614;2023-04-16T23:15:01;139.45;;;134.90;;
7348;SDS011;13010;-33.424;-70.614;2023-04-16T23:17:53;148.95;;;144.15;;
7348;SDS011;13010;-33.424;-70.614;2023-04-16T23:20:42;162.55;;;157.40;;
7348;SDS011;13010;-33.424;-70.614;2023-04-16T23:23:30;169.13;;;163.85;;
7348;SDS011;13010;-33.424;-70.614;2023-04-16T23:26:21;163.45;;;158.30;;
7348;SDS011;13010;-33.424;-70.614;2023-04-16T23:29:10;156.50;;;151.50;;
7348;SDS011;13010;-33.424;-70.614;2023-04-16T23:31:58;170.65;;;165.32;;
7348;SDS011;13010;-33.424;-70.614;2023-04-16T23:34:49;173.18;;;167.77;;
7348;SDS011;13010;-33.424;-70.614;2023-04-16T23:37:39;134.00;;;129.55;;
7348;SDS011;13010;-33.424;-70.614;2023-04-16T23:40:27;150.82;;;145.93;;
7348;SDS011;13010;-33.424;-70.614;2023-04-16T23:43:18;167.73;;;162.43;;
7348;SDS011;13010;-33.424;-70.614;2023-04-16T23:46:07;128.95;;;124.68;;
7348;SDS011;13010;-33.424;-70.614;2023-04-16T23:48:55;157.18;;;152.13;;
7348;SDS011;13010;-33.424;-70.614;2023-04-16T23:51:44;171.32;;;165.98;;
7348;SDS011;13010;-33.424;-70.614;2023-04-16T23:54:33;133.95;;;129.50;;
7348;SDS011;13010;-33.424;-70.614;2023-04-16T23:57:21;135.07;;;130.57;;
